TimeCDT,TemperatureF,Dew PointF,Humidity,Sea Level PressureIn,VisibilityMPH,Wind Direction,Wind SpeedMPH,Gust SpeedMPH,PrecipitationIn,Events,Conditions,WindDirDegrees,DateUTC
1:56 AM,61.0,59.0,93,29.91,10.0,SSW,9.2,-,N/A,,Scattered Clouds,200,2012-10-23 06:56:00
2:56 AM,59.9,59.0,97,29.90,10.0,South,9.2,-,0.00,,Clear,180,2012-10-23 07:56:00
3:56 AM,61.0,57.9,90,29.91,10.0,South,12.7,-,N/A,,Clear,190,2012-10-23 08:56:00
4:33 AM,60.8,57.2,88,29.93,4.0,SSW,10.4,-,0.02,Rain-Thunderstorm,Thunderstorms and Rain,210,2012-10-23 09:33:00
4:40 AM,60.8,57.2,88,29.93,9.0,SSW,10.4,-,0.02,Rain-Thunderstorm,Light Thunderstorms and Rain,210,2012-10-23 09:40:00
4:56 AM,61.0,57.9,90,29.91,10.0,SW,11.5,-,0.02,Rain-Thunderstorm,Light Thunderstorms and Rain,230,2012-10-23 09:56:00
5:08 AM,62.6,57.2,82,29.91,10.0,SW,11.5,-,0.00,Rain,Light Rain,230,2012-10-23 10:08:00
5:56 AM,61.0,57.9,90,29.90,10.0,SSW,12.7,-,0.00,,Clear,210,2012-10-23 10:56:00
6:56 AM,61.0,59.9,96,29.91,10.0,SSW,12.7,-,N/A,,Clear,210,2012-10-23 11:56:00
7:56 AM,61.0,59.9,96,29.94,10.0,SSW,12.7,-,N/A,,Scattered Clouds,210,2012-10-23 12:56:00
8:56 AM,63.0,59.9,90,29.95,10.0,SSW,15.0,-,N/A,,Clear,210,2012-10-23 13:56:00
10:56 AM,65.8,61.0,84,29.94,10.0,SW,13.8,-,N/A,,Clear,220,2012-10-23 15:56:00
11:56 AM,65.8,61.0,84,29.94,10.0,SSW,12.7,-,0.00,,Partly Cloudy,200,2012-10-23 16:56:00
12:56 PM,64.9,59.9,84,29.93,10.0,South,13.8,-,N/A,,Mostly Cloudy,190,2012-10-23 17:56:00
1:56 PM,68.0,61.9,81,29.91,10.0,South,18.4,-,0.00,,Scattered Clouds,190,2012-10-23 18:56:00
2:56 PM,70.0,61.9,75,29.89,10.0,SSW,19.6,-,N/A,,Scattered Clouds,200,2012-10-23 19:56:00
3:13 PM,69.8,60.8,73,29.91,10.0,SSW,18.4,-,N/A,,Mostly Cloudy,200,2012-10-23 20:13:00
3:26 PM,69.8,60.8,73,29.90,10.0,South,20.7,-,N/A,,Mostly Cloudy,190,2012-10-23 20:26:00
3:56 PM,70.0,61.0,73,29.88,10.0,SSW,17.3,-,N/A,,Scattered Clouds,200,2012-10-23 20:56:00
4:27 PM,69.8,60.8,73,29.90,10.0,South,16.1,-,N/A,,Overcast,180,2012-10-23 21:27:00
4:56 PM,68.0,61.0,78,29.88,10.0,South,15.0,-,N/A,,Overcast,190,2012-10-23 21:56:00
5:56 PM,66.9,61.9,84,29.89,10.0,South,15.0,-,N/A,,Overcast,180,2012-10-23 22:56:00
6:40 PM,64.4,60.8,88,29.92,10.0,SSW,11.5,-,N/A,,Mostly Cloudy,200,2012-10-23 23:40:00
6:56 PM,64.9,61.9,90,29.91,10.0,South,10.4,-,N/A,,Mostly Cloudy,190,2012-10-23 23:56:00
7:03 PM,64.4,62.6,94,29.92,10.0,South,10.4,-,N/A,,Mostly Cloudy,190,2012-10-24 00:03:00
7:20 PM,64.4,62.6,94,29.92,10.0,South,8.1,-,N/A,,Overcast,170,2012-10-24 00:20:00
7:56 PM,64.9,61.9,90,29.91,10.0,South,10.4,-,N/A,,Overcast,180,2012-10-24 00:56:00
8:56 PM,64.9,61.0,87,29.92,10.0,South,11.5,-,N/A,,Overcast,180,2012-10-24 01:56:00
9:56 PM,63.0,59.9,90,29.91,10.0,South,12.7,-,N/A,,Clear,170,2012-10-24 02:56:00
10:56 PM,61.9,59.9,93,29.91,10.0,South,12.7,-,N/A,,Clear,190,2012-10-24 03:56:00
11:56 PM,61.0,59.0,93,29.91,10.0,SSW,13.8,-,N/A,,Clear,200,2012-10-24 04:56:00